createdAt,value
2019-05-16T00:01:09.365Z,1.10
2019-05-16T00:03:53.379Z,0.85
2019-05-16T00:06:38.991Z,0.83
2019-05-16T00:12:24.791Z,1.10
2019-05-16T00:15:09.335Z,0.93
2019-05-16T00:17:53.577Z,0.90
2019-05-16T00:20:39.912Z,0.80
2019-05-16T00:23:23.697Z,1.00
2019-05-16T00:26:08.008Z,1.00
2019-05-16T00:28:52.140Z,1.00
2019-05-16T00:31:38.065Z,0.90
2019-05-16T00:34:23.359Z,0.97
2019-05-16T00:37:09.315Z,0.90
2019-05-16T00:39:53.416Z,0.90
2019-05-16T00:42:39.676Z,1.10
2019-05-16T00:45:23.707Z,0.80
2019-05-16T00:48:09.217Z,0.90
2019-05-16T00:50:52.122Z,0.80
2019-05-16T00:53:38.094Z,0.87
2019-05-16T00:56:21.578Z,0.90
2019-05-16T00:59:07.859Z,1.00
2019-05-16T01:01:52.058Z,0.80
2019-05-16T01:04:38.053Z,0.90
2019-05-16T01:07:22.885Z,1.00
2019-05-16T01:10:08.989Z,0.90
2019-05-16T01:12:52.900Z,1.30
2019-05-16T01:15:38.049Z,1.30
2019-05-16T01:18:21.968Z,1.00
2019-05-16T01:21:07.829Z,0.87
2019-05-16T01:23:53.310Z,1.10
2019-05-16T01:26:39.244Z,0.90
2019-05-16T01:29:23.497Z,1.00
2019-05-16T01:32:08.381Z,0.80
2019-05-16T01:34:53.778Z,0.80
2019-05-16T01:37:38.593Z,1.10
2019-05-16T01:40:22.545Z,0.90
2019-05-16T01:43:08.387Z,0.80
2019-05-16T01:45:51.572Z,1.00
2019-05-16T01:48:35.117Z,1.15
2019-05-16T01:51:18.897Z,0.80
2019-05-16T01:54:03.646Z,1.00
2019-05-16T01:56:48.481Z,1.27
2019-05-16T01:59:32.571Z,1.00
2019-05-16T02:02:18.531Z,1.10
2019-05-16T02:05:02.500Z,1.17
2019-05-16T02:07:48.020Z,1.10
2019-05-16T02:10:31.775Z,1.10
2019-05-16T02:13:19.318Z,1.00
2019-05-16T02:16:03.653Z,1.20
2019-05-16T02:18:48.816Z,0.97
2019-05-16T02:21:33.298Z,0.90
2019-05-16T02:24:18.249Z,0.80
2019-05-16T02:27:03.418Z,0.95
2019-05-16T02:29:48.015Z,1.17
2019-05-16T02:32:31.956Z,0.80
2019-05-16T02:35:16.080Z,1.33
2019-05-16T02:38:01.211Z,1.10
2019-05-16T02:40:45.461Z,1.07
2019-05-16T02:43:31.211Z,0.90
2019-05-16T02:46:15.120Z,0.90
2019-05-16T02:49:00.799Z,0.90
2019-05-16T02:51:44.820Z,0.90
2019-05-16T02:54:31.600Z,1.13
2019-05-16T02:57:16.348Z,0.90
2019-05-16T03:00:01.998Z,0.90
2019-05-16T03:02:46.064Z,1.00
2019-05-16T03:05:30.653Z,1.10
2019-05-16T03:08:14.319Z,1.10
2019-05-16T03:11:00.784Z,1.23
2019-05-16T03:13:44.076Z,0.80
2019-05-16T03:16:31.309Z,1.10
2019-05-16T03:19:13.228Z,1.20
2019-05-16T03:21:56.895Z,1.10
2019-05-16T03:24:42.089Z,1.20
2019-05-16T03:27:25.987Z,1.10
2019-05-16T03:30:15.690Z,1.30
2019-05-16T03:32:55.914Z,1.30
2019-05-16T03:35:44.878Z,1.12
2019-05-16T03:38:26.261Z,1.42
2019-05-16T03:41:11.505Z,1.40
2019-05-16T03:43:55.853Z,1.10
2019-05-16T03:46:41.294Z,1.20
2019-05-16T03:49:27.091Z,1.20
2019-05-16T03:52:11.859Z,1.67
2019-05-16T03:54:57.271Z,1.32
2019-05-16T03:57:41.891Z,1.20
2019-05-16T04:00:52.082Z,1.30
2019-05-16T04:03:35.357Z,1.20
2019-05-16T04:06:22.182Z,1.03
2019-05-16T04:09:06.570Z,1.33
2019-05-16T04:11:51.134Z,1.47
2019-05-16T04:14:34.672Z,1.20
2019-05-16T04:17:21.116Z,1.20
2019-05-16T04:20:05.578Z,1.30
2019-05-16T04:22:51.260Z,1.10
2019-05-16T04:25:35.781Z,1.07
2019-05-16T04:28:21.837Z,1.07
2019-05-16T04:31:06.732Z,1.20
2019-05-16T04:33:51.814Z,1.27
2019-05-16T04:36:35.623Z,1.15
2019-05-16T04:39:20.875Z,1.10
2019-05-16T04:44:43.601Z,0.87
2019-05-16T04:47:31.448Z,1.17
2019-05-16T04:50:15.588Z,1.30
2019-05-16T04:53:01.366Z,1.10
2019-05-16T04:55:51.467Z,1.10
2019-05-16T04:58:51.089Z,1.00
2019-05-16T05:04:42.016Z,1.22
2019-05-16T05:07:26.527Z,1.00
2019-05-16T05:10:11.808Z,1.10
2019-05-16T05:12:56.230Z,0.97
2019-05-16T05:15:40.713Z,1.20
2019-05-16T05:18:24.329Z,1.10
2019-05-16T05:21:11.413Z,1.43
2019-05-16T05:23:54.664Z,1.27
2019-05-16T05:26:41.508Z,1.20
2019-05-16T05:29:25.650Z,0.90
2019-05-16T05:32:14.455Z,1.30
2019-05-16T05:34:59.679Z,1.07
2019-05-16T05:37:43.343Z,1.10
2019-05-16T05:40:29.691Z,0.90
2019-05-16T05:43:14.312Z,1.00
2019-05-16T05:45:47.767Z,1.30
2019-05-16T05:48:32.117Z,1.20
2019-05-16T05:51:16.358Z,1.30
2019-05-16T05:54:00.828Z,1.10
2019-05-16T05:56:50.136Z,0.90
2019-05-16T05:59:49.828Z,1.10
2019-05-16T06:02:41.520Z,1.30
2019-05-16T06:05:26.034Z,1.10
2019-05-16T06:08:14.182Z,1.00
2019-05-16T06:14:09.797Z,1.20
2019-05-16T06:17:06.505Z,1.00
2019-05-16T06:19:50.598Z,1.10
2019-05-16T06:22:34.227Z,1.00
2019-05-16T06:25:22.218Z,1.00
2019-05-16T06:28:03.904Z,1.10
2019-05-16T06:30:47.719Z,1.00
2019-05-16T06:33:23.136Z,1.03
2019-05-16T06:36:08.005Z,1.03
2019-05-16T06:38:51.530Z,1.10
2019-05-16T06:41:35.599Z,1.30
2019-05-16T06:44:20.778Z,0.93
2019-05-16T06:47:17.072Z,1.20
2019-05-16T06:49:53.248Z,1.42
2019-05-16T06:52:37.719Z,1.00
2019-05-16T06:55:21.872Z,1.40
2019-05-16T06:58:05.505Z,1.10
2019-05-16T07:00:41.047Z,1.20
2019-05-16T07:03:25.477Z,1.20
2019-05-16T07:06:11.006Z,1.35
2019-05-16T07:08:54.791Z,1.10
2019-05-16T07:11:39.795Z,1.60
2019-05-16T07:14:28.141Z,1.20
2019-05-16T07:17:10.296Z,1.10
2019-05-16T07:19:54.838Z,1.40
2019-05-16T07:22:40.581Z,1.10
2019-05-16T07:25:26.085Z,1.53
2019-05-16T07:28:12.329Z,1.27
2019-05-16T07:30:56.320Z,1.20
2019-05-16T07:33:40.728Z,1.27
2019-05-16T07:36:24.944Z,1.37
2019-05-16T07:39:10.944Z,1.17
2019-05-16T07:41:55.514Z,1.33
2019-05-16T07:44:40.878Z,1.20
2019-05-16T07:47:25.209Z,1.43
2019-05-16T07:50:10.607Z,1.57
2019-05-16T07:52:59.873Z,1.30
2019-05-16T07:55:42.997Z,1.20
2019-05-16T07:58:27.641Z,1.40
2019-05-16T08:01:12.986Z,1.00
2019-05-16T08:03:45.413Z,1.20
2019-05-16T08:06:31.084Z,1.30
2019-05-16T08:09:14.849Z,1.27
2019-05-16T08:12:05.929Z,1.10
2019-05-16T08:15:01.957Z,1.17
2019-05-16T08:17:46.441Z,1.30
2019-05-16T08:20:32.424Z,1.27
2019-05-16T08:23:17.109Z,1.37
2019-05-16T08:26:01.753Z,1.30
2019-05-16T08:28:47.017Z,1.40
2019-05-16T08:31:32.745Z,1.10
2019-05-16T08:34:20.752Z,1.10
2019-05-16T08:37:03.537Z,1.05
2019-05-16T08:39:50.971Z,1.17
2019-05-16T08:42:34.379Z,1.10
2019-05-16T08:45:21.221Z,1.03
2019-05-16T08:48:06.315Z,1.23
2019-05-16T08:50:54.657Z,1.30
2019-05-16T08:53:37.063Z,1.17
2019-05-16T08:56:22.510Z,1.20
2019-05-16T08:59:13.240Z,1.00
2019-05-16T09:01:50.741Z,1.20
2019-05-16T09:04:43.900Z,1.10
2019-05-16T09:07:13.435Z,1.17
2019-05-16T09:10:00.192Z,1.10
2019-05-16T09:12:43.537Z,1.10
2019-05-16T09:15:27.499Z,1.20
2019-05-16T09:18:11.664Z,1.30
2019-05-16T09:20:57.809Z,1.77
2019-05-16T09:23:42.756Z,1.10
2019-05-16T09:26:27.851Z,1.40
2019-05-16T09:29:12.006Z,1.30
2019-05-16T09:32:09.096Z,1.40
2019-05-16T09:34:47.639Z,1.40
2019-05-16T09:37:42.020Z,1.60
2019-05-16T09:40:27.790Z,1.63
2019-05-16T09:43:12.079Z,1.87
2019-05-16T09:46:03.421Z,1.80
2019-05-16T09:48:41.953Z,1.97
2019-05-16T09:51:27.094Z,2.10
2019-05-16T09:54:11.354Z,2.33
2019-05-16T09:56:57.182Z,1.90
2019-05-16T09:59:41.546Z,1.55
2019-05-16T10:02:27.406Z,1.80
2019-05-16T10:05:16.915Z,1.60
2019-05-16T10:08:12.187Z,1.70
2019-05-16T10:10:57.095Z,1.90
2019-05-16T10:13:41.261Z,1.80
2019-05-16T10:16:27.356Z,1.73
2019-05-16T10:22:00.009Z,1.60
2019-05-16T10:24:41.519Z,1.70
2019-05-16T10:27:26.497Z,1.70
2019-05-16T10:30:10.187Z,1.87
2019-05-16T10:32:54.535Z,1.80
2019-05-16T10:35:39.161Z,2.00
2019-05-16T10:38:23.798Z,2.23
2019-05-16T10:41:07.693Z,2.00
2019-05-16T10:43:51.842Z,2.20
2019-05-16T10:46:37.612Z,1.90
2019-05-16T10:49:34.263Z,2.30
2019-05-16T10:52:08.347Z,2.20
2019-05-16T10:54:58.510Z,1.80
2019-05-16T10:57:39.039Z,2.00
2019-05-16T11:00:57.177Z,1.60
2019-05-16T11:03:10.049Z,2.03
2019-05-16T11:06:02.949Z,2.00
2019-05-16T11:08:41.428Z,1.63
2019-05-16T11:11:13.794Z,2.00
2019-05-16T11:13:58.269Z,2.27
2019-05-16T11:16:42.609Z,2.30
2019-05-16T11:19:28.199Z,2.10
2019-05-16T11:22:13.376Z,2.10
2019-05-16T11:24:57.188Z,1.77
2019-05-16T11:27:41.174Z,2.27
2019-05-16T11:30:27.799Z,2.17
2019-05-16T11:33:10.715Z,2.07
2019-05-16T11:35:54.862Z,2.23
2019-05-16T11:38:39.675Z,2.20
2019-05-16T11:41:27.454Z,1.83
2019-05-16T11:44:11.098Z,2.30
2019-05-16T11:46:57.607Z,2.10
2019-05-16T11:49:41.073Z,2.37
2019-05-16T11:52:25.351Z,2.13
2019-05-16T11:55:09.793Z,2.40
2019-05-16T11:57:53.831Z,2.30
2019-05-16T12:00:38.266Z,2.70
2019-05-16T12:03:23.969Z,2.22
2019-05-16T12:06:10.712Z,2.30
2019-05-16T12:08:54.605Z,2.47
2019-05-16T12:11:27.553Z,2.62
2019-05-16T12:14:30.374Z,2.50
2019-05-16T12:17:16.627Z,2.10
2019-05-16T12:20:00.983Z,3.13
2019-05-16T12:22:44.642Z,2.77
2019-05-16T12:25:28.648Z,3.30
2019-05-16T12:28:13.943Z,3.27
2019-05-16T12:30:57.789Z,2.73
2019-05-16T12:33:42.129Z,2.90
2019-05-16T12:36:27.554Z,3.17
2019-05-16T12:39:11.483Z,3.72
2019-05-16T12:41:44.095Z,3.30
2019-05-16T12:44:28.909Z,3.20
2019-05-16T12:47:17.369Z,3.30
2019-05-16T12:50:01.270Z,3.63
2019-05-16T12:52:50.391Z,3.63
2019-05-16T12:55:47.680Z,3.90
2019-05-16T12:58:42.035Z,4.03
2019-05-16T13:01:20.848Z,4.13
2019-05-16T13:04:07.283Z,4.30
2019-05-16T13:06:51.606Z,4.00
2019-05-16T13:12:48.398Z,4.23
2019-05-16T13:15:32.528Z,4.20
2019-05-16T13:18:17.044Z,4.00
2019-05-16T13:21:01.794Z,4.47
2019-05-16T13:23:46.728Z,4.93
2019-05-16T13:26:31.225Z,4.50
2019-05-16T13:29:18.106Z,3.83
2019-05-16T13:32:02.229Z,3.73
2019-05-16T13:34:46.457Z,3.60
2019-05-16T13:37:32.422Z,3.72
2019-05-16T13:40:17.818Z,3.27
2019-05-16T13:43:01.804Z,3.60
2019-05-16T13:45:47.991Z,3.77
2019-05-16T13:48:37.650Z,4.03
2019-05-16T13:51:43.927Z,3.90
2019-05-16T13:54:27.634Z,4.03
2019-05-16T13:57:12.008Z,4.17
2019-05-16T13:59:56.784Z,4.20
2019-05-16T14:02:41.397Z,4.30
2019-05-16T14:05:26.805Z,4.33
2019-05-16T14:08:11.008Z,4.33
2019-05-16T14:11:00.703Z,4.40
2019-05-16T14:13:43.007Z,4.20
2019-05-16T14:16:27.341Z,4.30
2019-05-16T14:19:13.023Z,4.20
2019-05-16T14:21:57.174Z,4.60
2019-05-16T14:24:44.180Z,4.23
2019-05-16T14:27:28.132Z,4.03
2019-05-16T14:30:13.426Z,4.50
2019-05-16T14:33:01.316Z,4.50
2019-05-16T14:35:47.238Z,4.07
2019-05-16T14:38:39.611Z,3.60
2019-05-16T14:41:23.985Z,3.13
2019-05-16T14:44:07.955Z,2.53
2019-05-16T14:46:52.682Z,2.40
2019-05-16T14:49:37.568Z,1.80
2019-05-16T14:52:21.830Z,1.70
2019-05-16T14:55:07.531Z,1.93
2019-05-16T14:57:51.688Z,1.98
2019-05-16T15:00:38.432Z,1.60
2019-05-16T15:03:21.999Z,1.65
2019-05-16T15:06:08.685Z,1.50
2019-05-16T15:08:56.594Z,1.60
2019-05-16T15:11:28.948Z,1.82
2019-05-16T15:14:13.527Z,2.07
2019-05-16T15:16:57.787Z,2.07
2019-05-16T15:19:42.323Z,2.20
2019-05-16T15:22:27.365Z,2.47
2019-05-16T15:25:13.066Z,2.17
2019-05-16T15:27:57.592Z,2.00
2019-05-16T15:30:43.265Z,2.43
2019-05-16T15:33:27.403Z,2.17
2019-05-16T15:36:13.634Z,2.50
2019-05-16T15:38:59.511Z,1.90
2019-05-16T15:41:45.436Z,2.67
2019-05-16T15:44:30.494Z,2.43
2019-05-16T15:47:02.870Z,1.90
2019-05-16T15:49:47.697Z,2.30
2019-05-16T15:52:32.400Z,2.57
2019-05-16T15:55:17.846Z,2.52
2019-05-16T15:58:02.573Z,2.23
2019-05-16T16:00:48.434Z,2.43
2019-05-16T16:03:32.434Z,2.57
2019-05-16T16:06:21.317Z,2.30
2019-05-16T16:09:06.933Z,2.63
2019-05-16T16:11:51.202Z,3.20
2019-05-16T16:14:36.784Z,3.07
2019-05-16T16:17:21.412Z,2.50
2019-05-16T16:20:09.913Z,3.20
2019-05-16T16:22:52.246Z,3.63
2019-05-16T16:25:36.913Z,3.77
2019-05-16T16:28:21.174Z,3.33
2019-05-16T16:30:53.765Z,3.90
2019-05-16T16:33:38.383Z,4.10
2019-05-16T16:36:23.725Z,4.00
2019-05-16T16:39:08.595Z,4.20
2019-05-16T16:41:52.945Z,5.45
2019-05-16T16:44:37.031Z,4.83
2019-05-16T16:47:09.559Z,4.50
2019-05-16T16:49:54.237Z,4.07
2019-05-16T16:52:38.768Z,4.67
2019-05-16T16:55:23.150Z,4.35
2019-05-16T16:58:11.951Z,5.05
2019-05-16T17:00:56.459Z,5.00
2019-05-16T17:03:40.630Z,4.57
2019-05-16T17:06:27.082Z,4.97
2019-05-16T17:09:18.806Z,5.00
2019-05-16T17:12:02.773Z,4.87
2019-05-16T17:14:46.869Z,4.83
2019-05-16T17:17:31.668Z,4.53
2019-05-16T17:20:04.093Z,5.10
2019-05-16T17:22:48.053Z,4.43
2019-05-16T17:25:33.074Z,4.67
2019-05-16T17:28:17.489Z,5.23
2019-05-16T17:31:01.888Z,5.03
2019-05-16T17:33:47.461Z,4.90
2019-05-16T17:36:32.113Z,4.63
2019-05-16T17:42:22.395Z,4.60
2019-05-16T17:45:07.505Z,5.17
2019-05-16T17:47:51.657Z,4.58
2019-05-16T17:50:37.464Z,5.00
2019-05-16T17:53:21.896Z,4.90
2019-05-16T17:56:07.205Z,5.97
2019-05-16T17:58:51.807Z,5.30
2019-05-16T18:01:36.526Z,4.87
2019-05-16T18:04:20.213Z,5.17
2019-05-16T18:07:04.254Z,5.20
2019-05-16T18:09:52.886Z,4.67
2019-05-16T18:12:37.317Z,5.13
2019-05-16T18:15:24.803Z,4.60
2019-05-16T18:18:09.143Z,5.43
2019-05-16T18:23:37.296Z,4.90
2019-05-16T18:26:21.718Z,5.17
2019-05-16T18:29:06.866Z,5.17
2019-05-16T18:31:51.680Z,5.73
2019-05-16T18:34:37.648Z,4.77
2019-05-16T18:37:21.458Z,4.50
2019-05-16T18:40:07.198Z,5.40
2019-05-16T18:42:51.947Z,5.07
2019-05-16T18:45:36.825Z,5.00
2019-05-16T18:51:23.237Z,4.93
2019-05-16T18:54:07.827Z,5.93
2019-05-16T18:56:52.378Z,5.10
2019-05-16T18:59:26.223Z,5.20
2019-05-16T19:02:17.970Z,5.47
2019-05-16T19:05:20.251Z,5.40
2019-05-16T19:08:07.401Z,5.03
2019-05-16T19:10:51.293Z,5.00
2019-05-16T19:13:24.631Z,4.83
2019-05-16T19:16:08.670Z,4.83
2019-05-16T19:18:41.293Z,4.93
2019-05-16T19:21:26.260Z,5.27
2019-05-16T19:24:10.611Z,5.33
2019-05-16T19:26:57.360Z,4.53
2019-05-16T19:29:42.098Z,5.00
2019-05-16T19:32:26.334Z,5.07
2019-05-16T19:35:10.771Z,5.33
2019-05-16T19:37:56.869Z,5.20
2019-05-16T19:40:40.734Z,5.05
2019-05-16T19:43:26.573Z,4.53
2019-05-16T19:46:10.645Z,4.63
2019-05-16T19:48:57.031Z,4.30
2019-05-16T19:51:41.054Z,4.60
2019-05-16T19:54:26.986Z,4.60
2019-05-16T19:57:11.103Z,4.80
2019-05-16T19:59:56.697Z,5.00
2019-05-16T20:02:41.511Z,5.27
2019-05-16T20:05:28.176Z,5.53
2019-05-16T20:08:12.753Z,4.73
2019-05-16T20:10:57.156Z,4.40
2019-05-16T20:13:41.851Z,4.85
2019-05-16T20:16:27.319Z,4.90
2019-05-16T20:19:12.274Z,4.47
2019-05-16T20:21:58.113Z,4.73
2019-05-16T20:24:43.198Z,4.90
2019-05-16T20:27:27.451Z,4.73
2019-05-16T20:30:11.608Z,4.70
2019-05-16T20:32:55.484Z,5.37
2019-05-16T20:35:40.751Z,4.53
2019-05-16T20:38:26.636Z,4.63
2019-05-16T20:41:10.615Z,4.60
2019-05-16T20:43:56.987Z,4.97
2019-05-16T20:46:40.879Z,5.53
2019-05-16T20:49:26.997Z,6.13
2019-05-16T20:52:11.984Z,6.20
2019-05-16T20:54:57.759Z,5.87
2019-05-16T20:57:41.632Z,6.20
2019-05-16T21:00:26.839Z,6.43
2019-05-16T21:03:11.448Z,6.63
2019-05-16T21:05:58.038Z,6.60
2019-05-16T21:08:42.264Z,6.47
2019-05-16T21:11:28.653Z,6.73
2019-05-16T21:14:12.284Z,6.90
2019-05-16T21:17:01.150Z,6.60
2019-05-16T21:19:44.698Z,6.23
2019-05-16T21:22:29.174Z,5.80
2019-05-16T21:25:13.420Z,6.20
2019-05-16T21:27:57.699Z,6.33
2019-05-16T21:30:41.865Z,6.53
2019-05-16T21:33:27.255Z,6.60
2019-05-16T21:36:11.199Z,5.70
2019-05-16T21:38:54.955Z,6.13
2019-05-16T21:41:39.254Z,6.23
2019-05-16T21:44:22.914Z,6.57
2019-05-16T21:47:06.731Z,7.27
2019-05-16T21:49:51.319Z,7.67
2019-05-16T21:52:24.189Z,6.75
2019-05-16T21:55:08.070Z,6.35
2019-05-16T21:57:52.167Z,7.47
2019-05-16T22:00:43.624Z,6.35
2019-05-16T22:03:40.966Z,6.33
2019-05-16T22:06:25.008Z,6.10
2019-05-16T22:09:09.525Z,6.43
2019-05-16T22:11:57.355Z,6.13
2019-05-16T22:14:46.710Z,6.00
2019-05-16T22:17:31.139Z,6.75
2019-05-16T22:20:16.534Z,6.37
2019-05-16T22:23:01.079Z,7.00
2019-05-16T22:25:48.717Z,7.27
2019-05-16T22:28:30.286Z,6.63
2019-05-16T22:31:16.462Z,7.30
2019-05-16T22:34:00.463Z,6.67
2019-05-16T22:36:49.312Z,5.83
2019-05-16T22:39:50.930Z,6.78
2019-05-16T22:42:34.698Z,6.50
2019-05-16T22:45:20.833Z,6.67
2019-05-16T22:48:07.047Z,6.57
2019-05-16T22:50:51.769Z,5.60
2019-05-16T22:53:36.879Z,6.43
2019-05-16T22:56:20.930Z,6.37
2019-05-16T22:59:07.064Z,6.37
2019-05-16T23:01:51.275Z,6.62
2019-05-16T23:04:36.684Z,6.50
2019-05-16T23:07:21.168Z,6.77
2019-05-16T23:10:07.332Z,6.80
2019-05-16T23:12:51.248Z,5.60
2019-05-16T23:15:35.543Z,6.23
2019-05-16T23:18:19.465Z,6.13
2019-05-16T23:21:03.724Z,6.65
2019-05-16T23:23:48.424Z,5.97
2019-05-16T23:26:31.904Z,6.27
2019-05-16T23:29:16.979Z,6.00
2019-05-16T23:32:01.727Z,6.47
2019-05-16T23:34:34.052Z,6.90
2019-05-16T23:37:24.211Z,6.40
2019-05-16T23:40:08.015Z,6.57
2019-05-16T23:42:52.527Z,6.47
2019-05-16T23:45:37.553Z,5.70
2019-05-16T23:48:22.162Z,5.93
2019-05-16T23:51:07.775Z,5.87
2019-05-16T23:53:57.052Z,6.27
2019-05-16T23:56:53.381Z,5.50
2019-05-16T23:59:38.203Z,6.33
